sensor_id;sensor_type;location;lat;lon;timestamp;P1;durP1;ratioP1;P2;durP2;ratioP2
20593;SDS011;10455;48.732;10.266;2023-10-31T00:04:05;2.77;;;2.23;;
20593;SDS011;10455;48.732;10.266;2023-10-31T00:09:08;2.30;;;2.10;;
20593;SDS011;10455;48.732;10.266;2023-10-31T00:14:11;2.43;;;2.20;;
20593;SDS011;10455;48.732;10.266;2023-10-31T00:19:13;2.73;;;2.20;;
20593;SDS011;10455;48.732;10.266;2023-10-31T00:24:17;2.43;;;2.23;;
20593;SDS011;10455;48.732;10.266;2023-10-31T00:29:18;2.73;;;1.90;;
20593;SDS011;10455;48.732;10.266;2023-10-31T00:34:20;1.90;;;1.80;;
20593;SDS011;10455;48.732;10.266;2023-10-31T00:39:23;2.23;;;2.10;;
20593;SDS011;10455;48.732;10.266;2023-10-31T00:44:25;1.93;;;1.83;;
20593;SDS011;10455;48.732;10.266;2023-10-31T00:49:27;2.50;;;2.30;;
20593;SDS011;10455;48.732;10.266;2023-10-31T00:54:30;4.00;;;2.90;;
20593;SDS011;10455;48.732;10.266;2023-10-31T00:59:32;3.57;;;3.27;;
20593;SDS011;10455;48.732;10.266;2023-10-31T01:04:35;3.43;;;2.77;;
20593;SDS011;10455;48.732;10.266;2023-10-31T01:09:39;2.73;;;2.50;;
20593;SDS011;10455;48.732;10.266;2023-10-31T01:14:41;3.43;;;2.73;;
20593;SDS011;10455;48.732;10.266;2023-10-31T01:19:43;2.60;;;2.40;;
20593;SDS011;10455;48.732;10.266;2023-10-31T01:24:46;2.87;;;2.60;;
20593;SDS011;10455;48.732;10.266;2023-10-31T01:29:48;2.57;;;2.37;;
20593;SDS011;10455;48.732;10.266;2023-10-31T01:34:50;2.53;;;2.33;;
20593;SDS011;10455;48.732;10.266;2023-10-31T01:39:53;2.87;;;2.67;;
20593;SDS011;10455;48.732;10.266;2023-10-31T01:44:55;2.70;;;2.50;;
20593;SDS011;10455;48.732;10.266;2023-10-31T01:49:57;2.53;;;2.37;;
20593;SDS011;10455;48.732;10.266;2023-10-31T01:55:01;3.20;;;2.60;;
20593;SDS011;10455;48.732;10.266;2023-10-31T02:00:04;1.80;;;1.70;;
20593;SDS011;10455;48.732;10.266;2023-10-31T02:05:06;2.20;;;1.73;;
20593;SDS011;10455;48.732;10.266;2023-10-31T02:10:10;1.60;;;1.50;;
20593;SDS011;10455;48.732;10.266;2023-10-31T02:15:12;1.80;;;1.70;;
20593;SDS011;10455;48.732;10.266;2023-10-31T02:20:14;2.07;;;1.90;;
20593;SDS011;10455;48.732;10.266;2023-10-31T02:25:17;2.00;;;1.80;;
20593;SDS011;10455;48.732;10.266;2023-10-31T02:30:19;1.77;;;1.67;;
20593;SDS011;10455;48.732;10.266;2023-10-31T02:35:21;1.77;;;1.67;;
20593;SDS011;10455;48.732;10.266;2023-10-31T02:40:25;2.10;;;1.90;;
20593;SDS011;10455;48.732;10.266;2023-10-31T02:45:26;1.80;;;1.70;;
20593;SDS011;10455;48.732;10.266;2023-10-31T02:50:28;1.90;;;1.70;;
20593;SDS011;10455;48.732;10.266;2023-10-31T02:55:32;2.00;;;1.77;;
20593;SDS011;10455;48.732;10.266;2023-10-31T03:00:33;1.80;;;1.70;;
20593;SDS011;10455;48.732;10.266;2023-10-31T03:05:35;1.60;;;1.50;;
20593;SDS011;10455;48.732;10.266;2023-10-31T03:10:39;2.10;;;1.90;;
20593;SDS011;10455;48.732;10.266;2023-10-31T03:15:42;2.37;;;1.97;;
20593;SDS011;10455;48.732;10.266;2023-10-31T03:20:44;1.90;;;1.70;;
20593;SDS011;10455;48.732;10.266;2023-10-31T03:25:48;2.43;;;1.70;;
20593;SDS011;10455;48.732;10.266;2023-10-31T03:30:50;2.00;;;1.50;;
20593;SDS011;10455;48.732;10.266;2023-10-31T03:35:52;2.60;;;1.77;;
20593;SDS011;10455;48.732;10.266;2023-10-31T03:40:55;2.27;;;1.73;;
20593;SDS011;10455;48.732;10.266;2023-10-31T03:45:57;2.50;;;1.73;;
20593;SDS011;10455;48.732;10.266;2023-10-31T03:50:59;1.87;;;1.70;;
20593;SDS011;10455;48.732;10.266;2023-10-31T03:56:02;1.93;;;1.70;;
20593;SDS011;10455;48.732;10.266;2023-10-31T04:01:05;2.07;;;1.70;;
20593;SDS011;10455;48.732;10.266;2023-10-31T04:06:07;1.93;;;1.83;;
20593;SDS011;10455;48.732;10.266;2023-10-31T04:11:10;5.97;;;2.63;;
20593;SDS011;10455;48.732;10.266;2023-10-31T04:16:12;3.20;;;2.30;;
20593;SDS011;10455;48.732;10.266;2023-10-31T04:21:14;2.57;;;2.13;;
20593;SDS011;10455;48.732;10.266;2023-10-31T04:26:17;2.80;;;1.80;;
20593;SDS011;10455;48.732;10.266;2023-10-31T04:31:19;3.30;;;1.90;;
20593;SDS011;10455;48.732;10.266;2023-10-31T04:36:21;2.90;;;1.80;;
20593;SDS011;10455;48.732;10.266;2023-10-31T04:41:24;1.80;;;1.70;;
20593;SDS011;10455;48.732;10.266;2023-10-31T04:46:26;1.73;;;1.57;;
20593;SDS011;10455;48.732;10.266;2023-10-31T04:51:28;1.60;;;1.50;;
20593;SDS011;10455;48.732;10.266;2023-10-31T04:56:36;3.23;;;1.50;;
20593;SDS011;10455;48.732;10.266;2023-10-31T05:01:38;4.20;;;1.80;;
20593;SDS011;10455;48.732;10.266;2023-10-31T05:06:39;4.03;;;1.60;;
20593;SDS011;10455;48.732;10.266;2023-10-31T05:11:43;2.10;;;1.70;;
20593;SDS011;10455;48.732;10.266;2023-10-31T05:16:45;2.30;;;1.70;;
20593;SDS011;10455;48.732;10.266;2023-10-31T05:21:47;1.50;;;1.40;;
20593;SDS011;10455;48.732;10.266;2023-10-31T05:26:50;1.60;;;1.50;;
20593;SDS011;10455;48.732;10.266;2023-10-31T05:31:52;1.87;;;1.70;;
20593;SDS011;10455;48.732;10.266;2023-10-31T05:36:54;3.27;;;1.50;;
20593;SDS011;10455;48.732;10.266;2023-10-31T05:41:57;4.47;;;1.60;;
20593;SDS011;10455;48.732;10.266;2023-10-31T05:46:59;2.20;;;1.50;;
20593;SDS011;10455;48.732;10.266;2023-10-31T05:52:01;3.80;;;1.73;;
20593;SDS011;10455;48.732;10.266;2023-10-31T05:57:04;3.57;;;1.80;;
20593;SDS011;10455;48.732;10.266;2023-10-31T06:02:06;3.23;;;1.57;;
20593;SDS011;10455;48.732;10.266;2023-10-31T06:07:08;3.10;;;2.33;;
20593;SDS011;10455;48.732;10.266;2023-10-31T06:12:12;1.80;;;1.70;;
20593;SDS011;10455;48.732;10.266;2023-10-31T06:17:14;2.13;;;1.73;;
20593;SDS011;10455;48.732;10.266;2023-10-31T06:22:16;7.67;;;2.00;;
20593;SDS011;10455;48.732;10.266;2023-10-31T06:27:19;2.20;;;1.63;;
20593;SDS011;10455;48.732;10.266;2023-10-31T06:32:21;2.90;;;1.70;;
20593;SDS011;10455;48.732;10.266;2023-10-31T06:37:23;1.80;;;1.70;;
20593;SDS011;10455;48.732;10.266;2023-10-31T06:42:27;2.00;;;1.80;;
20593;SDS011;10455;48.732;10.266;2023-10-31T06:47:30;1.70;;;1.60;;
20593;SDS011;10455;48.732;10.266;2023-10-31T06:52:32;2.00;;;1.90;;
20593;SDS011;10455;48.732;10.266;2023-10-31T06:57:35;1.90;;;1.80;;
20593;SDS011;10455;48.732;10.266;2023-10-31T07:02:37;1.80;;;1.70;;
20593;SDS011;10455;48.732;10.266;2023-10-31T07:07:38;1.80;;;1.70;;
20593;SDS011;10455;48.732;10.266;2023-10-31T07:12:42;1.70;;;1.60;;
20593;SDS011;10455;48.732;10.266;2023-10-31T07:17:44;1.50;;;1.43;;
20593;SDS011;10455;48.732;10.266;2023-10-31T07:22:45;1.93;;;1.50;;
20593;SDS011;10455;48.732;10.266;2023-10-31T07:27:49;1.53;;;1.43;;
20593;SDS011;10455;48.732;10.266;2023-10-31T07:32:51;1.70;;;1.60;;
20593;SDS011;10455;48.732;10.266;2023-10-31T07:37:53;1.53;;;1.43;;
20593;SDS011;10455;48.732;10.266;2023-10-31T07:42:56;1.50;;;1.40;;
20593;SDS011;10455;48.732;10.266;2023-10-31T07:47:58;3.70;;;1.87;;
20593;SDS011;10455;48.732;10.266;2023-10-31T07:53:00;3.77;;;1.60;;
20593;SDS011;10455;48.732;10.266;2023-10-31T07:58:03;7.17;;;1.60;;
20593;SDS011;10455;48.732;10.266;2023-10-31T08:03:05;2.80;;;1.40;;
20593;SDS011;10455;48.732;10.266;2023-10-31T08:08:07;1.87;;;1.50;;
20593;SDS011;10455;48.732;10.266;2023-10-31T08:13:10;1.37;;;1.20;;
20593;SDS011;10455;48.732;10.266;2023-10-31T08:18:12;1.60;;;1.50;;
20593;SDS011;10455;48.732;10.266;2023-10-31T08:23:14;1.50;;;1.40;;
20593;SDS011;10455;48.732;10.266;2023-10-31T08:28:18;1.70;;;1.60;;
20593;SDS011;10455;48.732;10.266;2023-10-31T08:33:20;2.07;;;1.40;;
20593;SDS011;10455;48.732;10.266;2023-10-31T08:38:21;1.60;;;1.50;;
20593;SDS011;10455;48.732;10.266;2023-10-31T08:43:25;1.43;;;1.40;;
20593;SDS011;10455;48.732;10.266;2023-10-31T08:48:27;1.47;;;1.30;;
20593;SDS011;10455;48.732;10.266;2023-10-31T08:53:29;1.80;;;1.70;;
20593;SDS011;10455;48.732;10.266;2023-10-31T08:58:32;1.80;;;1.50;;
20593;SDS011;10455;48.732;10.266;2023-10-31T09:03:34;2.83;;;1.60;;
20593;SDS011;10455;48.732;10.266;2023-10-31T09:08:36;1.60;;;1.50;;
20593;SDS011;10455;48.732;10.266;2023-10-31T09:13:40;1.53;;;1.43;;
20593;SDS011;10455;48.732;10.266;2023-10-31T09:18:42;2.17;;;1.50;;
20593;SDS011;10455;48.732;10.266;2023-10-31T09:23:44;2.97;;;1.43;;
20593;SDS011;10455;48.732;10.266;2023-10-31T09:28:47;2.05;;;1.58;;
20593;SDS011;10455;48.732;10.266;2023-10-31T09:33:50;2.15;;;1.60;;
20593;SDS011;10455;48.732;10.266;2023-10-31T09:38:52;1.70;;;1.60;;
20593;SDS011;10455;48.732;10.266;2023-10-31T09:43:56;1.98;;;1.75;;
20593;SDS011;10455;48.732;10.266;2023-10-31T09:48:58;2.00;;;1.80;;
20593;SDS011;10455;48.732;10.266;2023-10-31T09:54:01;2.83;;;1.90;;
20593;SDS011;10455;48.732;10.266;2023-10-31T09:59:05;3.75;;;1.92;;
20593;SDS011;10455;48.732;10.266;2023-10-31T10:04:07;7.90;;;2.33;;
20593;SDS011;10455;48.732;10.266;2023-10-31T10:09:09;4.25;;;2.30;;
20593;SDS011;10455;48.732;10.266;2023-10-31T10:14:13;4.65;;;2.00;;
20593;SDS011;10455;48.732;10.266;2023-10-31T10:19:15;2.95;;;1.98;;
20593;SDS011;10455;48.732;10.266;2023-10-31T10:24:19;4.38;;;2.10;;
20593;SDS011;10455;48.732;10.266;2023-10-31T10:29:23;2.20;;;2.00;;
20593;SDS011;10455;48.732;10.266;2023-10-31T10:34:26;3.75;;;2.20;;
20593;SDS011;10455;48.732;10.266;2023-10-31T10:39:28;3.22;;;2.33;;
20593;SDS011;10455;48.732;10.266;2023-10-31T10:44:35;2.70;;;2.20;;
20593;SDS011;10455;48.732;10.266;2023-10-31T10:49:38;3.42;;;2.40;;
20593;SDS011;10455;48.732;10.266;2023-10-31T10:54:44;2.53;;;2.33;;
20593;SDS011;10455;48.732;10.266;2023-10-31T10:59:51;3.00;;;2.40;;
20593;SDS011;10455;48.732;10.266;2023-10-31T11:04:59;3.42;;;3.05;;
20593;SDS011;10455;48.732;10.266;2023-10-31T11:10:02;2.97;;;2.67;;
20593;SDS011;10455;48.732;10.266;2023-10-31T11:15:07;3.33;;;3.03;;
20593;SDS011;10455;48.732;10.266;2023-10-31T11:20:12;3.20;;;2.90;;
20593;SDS011;10455;48.732;10.266;2023-10-31T11:25:17;3.03;;;2.83;;
20593;SDS011;10455;48.732;10.266;2023-10-31T11:30:22;2.60;;;2.40;;
20593;SDS011;10455;48.732;10.266;2023-10-31T11:35:29;3.10;;;2.80;;
20593;SDS011;10455;48.732;10.266;2023-10-31T11:40:33;3.63;;;3.03;;
20593;SDS011;10455;48.732;10.266;2023-10-31T11:45:41;3.03;;;2.70;;
20593;SDS011;10455;48.732;10.266;2023-10-31T11:50:44;3.35;;;2.72;;
20593;SDS011;10455;48.732;10.266;2023-10-31T11:55:46;3.40;;;2.80;;
20593;SDS011;10455;48.732;10.266;2023-10-31T12:00:50;3.63;;;2.60;;
20593;SDS011;10455;48.732;10.266;2023-10-31T12:05:54;2.80;;;2.60;;
20593;SDS011;10455;48.732;10.266;2023-10-31T12:11:04;3.00;;;2.50;;
20593;SDS011;10455;48.732;10.266;2023-10-31T12:16:11;3.20;;;2.88;;
20593;SDS011;10455;48.732;10.266;2023-10-31T12:21:13;5.43;;;3.10;;
20593;SDS011;10455;48.732;10.266;2023-10-31T12:26:20;3.17;;;2.80;;
20593;SDS011;10455;48.732;10.266;2023-10-31T12:31:24;3.13;;;2.88;;
20593;SDS011;10455;48.732;10.266;2023-10-31T12:36:25;3.28;;;3.00;;
20593;SDS011;10455;48.732;10.266;2023-10-31T12:41:27;3.00;;;2.80;;
20593;SDS011;10455;48.732;10.266;2023-10-31T12:46:31;3.60;;;3.30;;
20593;SDS011;10455;48.732;10.266;2023-10-31T12:51:35;4.65;;;3.30;;
20593;SDS011;10455;48.732;10.266;2023-10-31T12:56:37;3.42;;;3.20;;
20593;SDS011;10455;48.732;10.266;2023-10-31T13:01:43;4.60;;;2.95;;
20593;SDS011;10455;48.732;10.266;2023-10-31T13:06:54;3.58;;;3.10;;
20593;SDS011;10455;48.732;10.266;2023-10-31T13:11:57;3.00;;;2.70;;
20593;SDS011;10455;48.732;10.266;2023-10-31T13:17:01;3.40;;;3.10;;
20593;SDS011;10455;48.732;10.266;2023-10-31T13:22:03;3.25;;;2.90;;
20593;SDS011;10455;48.732;10.266;2023-10-31T13:27:05;4.80;;;3.00;;
20593;SDS011;10455;48.732;10.266;2023-10-31T13:32:09;2.88;;;2.67;;
20593;SDS011;10455;48.732;10.266;2023-10-31T13:37:11;4.38;;;2.90;;
20593;SDS011;10455;48.732;10.266;2023-10-31T13:42:13;4.03;;;3.17;;
20593;SDS011;10455;48.732;10.266;2023-10-31T13:47:17;4.75;;;2.83;;
20593;SDS011;10455;48.732;10.266;2023-10-31T13:52:19;4.05;;;3.00;;
20593;SDS011;10455;48.732;10.266;2023-10-31T13:57:20;3.10;;;2.90;;
20593;SDS011;10455;48.732;10.266;2023-10-31T14:02:24;3.85;;;3.50;;
20593;SDS011;10455;48.732;10.266;2023-10-31T14:07:26;5.07;;;4.60;;
20593;SDS011;10455;48.732;10.266;2023-10-31T14:12:28;6.03;;;2.50;;
20593;SDS011;10455;48.732;10.266;2023-10-31T14:17:31;3.03;;;2.20;;
20593;SDS011;10455;48.732;10.266;2023-10-31T14:22:33;1.70;;;1.60;;
20593;SDS011;10455;48.732;10.266;2023-10-31T14:27:35;4.10;;;1.97;;
20593;SDS011;10455;48.732;10.266;2023-10-31T14:32:38;2.87;;;1.80;;
20593;SDS011;10455;48.732;10.266;2023-10-31T14:37:40;4.83;;;1.70;;
20593;SDS011;10455;48.732;10.266;2023-10-31T14:42:43;2.27;;;1.70;;
20593;SDS011;10455;48.732;10.266;2023-10-31T14:47:46;2.53;;;1.80;;
20593;SDS011;10455;48.732;10.266;2023-10-31T14:52:48;1.83;;;1.70;;
20593;SDS011;10455;48.732;10.266;2023-10-31T14:57:50;2.43;;;1.90;;
20593;SDS011;10455;48.732;10.266;2023-10-31T15:02:54;3.23;;;1.83;;
20593;SDS011;10455;48.732;10.266;2023-10-31T15:07:56;2.10;;;2.00;;
20593;SDS011;10455;48.732;10.266;2023-10-31T15:12:58;3.30;;;2.13;;
20593;SDS011;10455;48.732;10.266;2023-10-31T15:18:02;5.10;;;2.90;;
20593;SDS011;10455;48.732;10.266;2023-10-31T15:23:04;3.40;;;2.43;;
20593;SDS011;10455;48.732;10.266;2023-10-31T15:28:05;5.17;;;2.40;;
20593;SDS011;10455;48.732;10.266;2023-10-31T15:33:09;4.03;;;2.50;;
20593;SDS011;10455;48.732;10.266;2023-10-31T15:38:11;3.00;;;2.70;;
20593;SDS011;10455;48.732;10.266;2023-10-31T15:43:14;2.87;;;2.57;;
20593;SDS011;10455;48.732;10.266;2023-10-31T15:48:18;3.30;;;2.90;;
20593;SDS011;10455;48.732;10.266;2023-10-31T15:53:19;3.93;;;2.50;;
20593;SDS011;10455;48.732;10.266;2023-10-31T15:58:22;4.70;;;3.47;;
20593;SDS011;10455;48.732;10.266;2023-10-31T16:03:26;50.00;;;44.50;;
20593;SDS011;10455;48.732;10.266;2023-10-31T16:08:28;12.63;;;11.63;;
20593;SDS011;10455;48.732;10.266;2023-10-31T16:13:33;17.70;;;16.17;;
20593;SDS011;10455;48.732;10.266;2023-10-31T16:18:37;29.33;;;27.10;;
20593;SDS011;10455;48.732;10.266;2023-10-31T16:23:39;20.03;;;18.33;;
20593;SDS011;10455;48.732;10.266;2023-10-31T16:28:41;21.07;;;19.20;;
20593;SDS011;10455;48.732;10.266;2023-10-31T16:33:46;120.03;;;72.30;;
20593;SDS011;10455;48.732;10.266;2023-10-31T16:38:48;21.63;;;19.40;;
20593;SDS011;10455;48.732;10.266;2023-10-31T16:43:50;6.50;;;5.33;;
20593;SDS011;10455;48.732;10.266;2023-10-31T16:48:54;20.70;;;18.73;;
20593;SDS011;10455;48.732;10.266;2023-10-31T16:53:56;17.43;;;15.63;;
20593;SDS011;10455;48.732;10.266;2023-10-31T16:58:58;9.83;;;8.93;;
20593;SDS011;10455;48.732;10.266;2023-10-31T17:04:01;7.40;;;6.63;;
20593;SDS011;10455;48.732;10.266;2023-10-31T17:09:03;10.90;;;9.80;;
20593;SDS011;10455;48.732;10.266;2023-10-31T17:14:05;11.90;;;9.77;;
20593;SDS011;10455;48.732;10.266;2023-10-31T17:19:09;9.40;;;8.50;;
20593;SDS011;10455;48.732;10.266;2023-10-31T17:24:10;19.93;;;12.60;;
20593;SDS011;10455;48.732;10.266;2023-10-31T17:29:13;16.87;;;14.70;;
20593;SDS011;10455;48.732;10.266;2023-10-31T17:34:16;13.33;;;10.73;;
20593;SDS011;10455;48.732;10.266;2023-10-31T17:39:18;61.57;;;51.00;;
20593;SDS011;10455;48.732;10.266;2023-10-31T17:44:20;35.87;;;32.57;;
20593;SDS011;10455;48.732;10.266;2023-10-31T17:49:24;14.73;;;13.00;;
20593;SDS011;10455;48.732;10.266;2023-10-31T17:54:25;19.43;;;17.43;;
20593;SDS011;10455;48.732;10.266;2023-10-31T17:59:27;11.80;;;10.60;;
20593;SDS011;10455;48.732;10.266;2023-10-31T18:04:31;16.47;;;14.77;;
20593;SDS011;10455;48.732;10.266;2023-10-31T18:09:33;13.30;;;11.97;;
20593;SDS011;10455;48.732;10.266;2023-10-31T18:14:34;17.30;;;14.30;;
20593;SDS011;10455;48.732;10.266;2023-10-31T18:19:38;15.00;;;12.10;;
20593;SDS011;10455;48.732;10.266;2023-10-31T18:24:40;15.00;;;13.53;;
20593;SDS011;10455;48.732;10.266;2023-10-31T18:29:42;17.07;;;14.97;;
20593;SDS011;10455;48.732;10.266;2023-10-31T18:34:46;33.23;;;26.97;;
20593;SDS011;10455;48.732;10.266;2023-10-31T18:39:48;16.93;;;12.70;;
20593;SDS011;10455;48.732;10.266;2023-10-31T18:44:50;12.70;;;11.40;;
20593;SDS011;10455;48.732;10.266;2023-10-31T18:49:53;10.47;;;9.47;;
20593;SDS011;10455;48.732;10.266;2023-10-31T18:54:55;13.07;;;11.83;;
20593;SDS011;10455;48.732;10.266;2023-10-31T18:59:59;15.70;;;11.33;;
20593;SDS011;10455;48.732;10.266;2023-10-31T19:05:04;14.83;;;9.73;;
20593;SDS011;10455;48.732;10.266;2023-10-31T19:10:08;12.77;;;10.93;;
20593;SDS011;10455;48.732;10.266;2023-10-31T19:15:10;9.10;;;7.87;;
20593;SDS011;10455;48.732;10.266;2023-10-31T19:20:14;7.53;;;6.60;;
20593;SDS011;10455;48.732;10.266;2023-10-31T19:25:16;8.07;;;6.90;;
20593;SDS011;10455;48.732;10.266;2023-10-31T19:30:18;10.80;;;8.47;;
20593;SDS011;10455;48.732;10.266;2023-10-31T19:35:21;10.53;;;7.87;;
20593;SDS011;10455;48.732;10.266;2023-10-31T19:40:23;8.30;;;7.50;;
20593;SDS011;10455;48.732;10.266;2023-10-31T19:45:27;11.20;;;9.43;;
20593;SDS011;10455;48.732;10.266;2023-10-31T19:50:31;11.53;;;8.73;;
20593;SDS011;10455;48.732;10.266;2023-10-31T19:55:33;12.40;;;9.27;;
20593;SDS011;10455;48.732;10.266;2023-10-31T20:00:35;11.30;;;9.00;;
20593;SDS011;10455;48.732;10.266;2023-10-31T20:05:38;13.27;;;12.07;;
20593;SDS011;10455;48.732;10.266;2023-10-31T20:10:40;11.27;;;9.33;;
20593;SDS011;10455;48.732;10.266;2023-10-31T20:15:43;11.67;;;10.53;;
20593;SDS011;10455;48.732;10.266;2023-10-31T20:20:51;11.27;;;9.53;;
20593;SDS011;10455;48.732;10.266;2023-10-31T20:25:52;11.03;;;9.33;;
20593;SDS011;10455;48.732;10.266;2023-10-31T20:30:55;6.23;;;5.63;;
20593;SDS011;10455;48.732;10.266;2023-10-31T20:36:00;6.87;;;5.87;;
20593;SDS011;10455;48.732;10.266;2023-10-31T20:41:02;7.30;;;5.60;;
20593;SDS011;10455;48.732;10.266;2023-10-31T20:46:04;7.13;;;6.17;;
20593;SDS011;10455;48.732;10.266;2023-10-31T20:51:08;7.07;;;4.87;;
20593;SDS011;10455;48.732;10.266;2023-10-31T20:56:10;4.77;;;4.37;;
20593;SDS011;10455;48.732;10.266;2023-10-31T21:01:11;5.67;;;5.17;;
20593;SDS011;10455;48.732;10.266;2023-10-31T21:06:15;7.50;;;6.80;;
20593;SDS011;10455;48.732;10.266;2023-10-31T21:11:18;7.93;;;7.17;;
20593;SDS011;10455;48.732;10.266;2023-10-31T21:16:22;8.80;;;7.90;;
20593;SDS011;10455;48.732;10.266;2023-10-31T21:21:25;9.17;;;7.43;;
20593;SDS011;10455;48.732;10.266;2023-10-31T21:26:27;9.03;;;8.17;;
20593;SDS011;10455;48.732;10.266;2023-10-31T21:31:30;8.07;;;7.27;;
20593;SDS011;10455;48.732;10.266;2023-10-31T21:36:33;6.93;;;5.87;;
20593;SDS011;10455;48.732;10.266;2023-10-31T21:41:35;7.53;;;6.83;;
20593;SDS011;10455;48.732;10.266;2023-10-31T21:46:37;7.57;;;6.77;;
20593;SDS011;10455;48.732;10.266;2023-10-31T21:51:40;9.77;;;7.57;;
20593;SDS011;10455;48.732;10.266;2023-10-31T21:56:42;8.33;;;7.53;;
20593;SDS011;10455;48.732;10.266;2023-10-31T22:01:44;8.90;;;8.03;;
20593;SDS011;10455;48.732;10.266;2023-10-31T22:06:47;9.10;;;8.30;;
20593;SDS011;10455;48.732;10.266;2023-10-31T22:11:49;7.97;;;7.17;;
20593;SDS011;10455;48.732;10.266;2023-10-31T22:16:51;7.40;;;6.70;;
20593;SDS011;10455;48.732;10.266;2023-10-31T22:21:54;7.60;;;6.80;;
20593;SDS011;10455;48.732;10.266;2023-10-31T22:26:56;7.33;;;6.63;;
20593;SDS011;10455;48.732;10.266;2023-10-31T22:31:58;7.20;;;6.53;;
20593;SDS011;10455;48.732;10.266;2023-10-31T22:37:02;8.67;;;7.30;;
20593;SDS011;10455;48.732;10.266;2023-10-31T22:42:04;8.00;;;7.23;;
20593;SDS011;10455;48.732;10.266;2023-10-31T22:47:06;9.67;;;8.17;;
20593;SDS011;10455;48.732;10.266;2023-10-31T22:52:09;10.13;;;9.10;;
20593;SDS011;10455;48.732;10.266;2023-10-31T22:57:11;11.37;;;9.73;;
20593;SDS011;10455;48.732;10.266;2023-10-31T23:02:13;15.70;;;12.03;;
20593;SDS011;10455;48.732;10.266;2023-10-31T23:07:17;14.60;;;11.87;;
20593;SDS011;10455;48.732;10.266;2023-10-31T23:12:19;21.53;;;13.43;;
20593;SDS011;10455;48.732;10.266;2023-10-31T23:17:21;17.90;;;14.27;;
20593;SDS011;10455;48.732;10.266;2023-10-31T23:22:25;18.63;;;13.93;;
20593;SDS011;10455;48.732;10.266;2023-10-31T23:27:28;20.67;;;15.27;;
20593;SDS011;10455;48.732;10.266;2023-10-31T23:32:30;21.33;;;16.30;;
20593;SDS011;10455;48.732;10.266;2023-10-31T23:37:33;22.13;;;15.77;;
20593;SDS011;10455;48.732;10.266;2023-10-31T23:42:35;20.73;;;14.70;;
20593;SDS011;10455;48.732;10.266;2023-10-31T23:47:37;26.40;;;15.73;;
20593;SDS011;10455;48.732;10.266;2023-10-31T23:52:40;24.17;;;16.70;;
20593;SDS011;10455;48.732;10.266;2023-10-31T23:57:42;24.00;;;15.10;;
